createdAt,value
2018-09-05T00:00:46.105Z,99.90
2018-09-05T00:03:14.549Z,99.90
2018-09-05T00:05:42.984Z,99.90
2018-09-05T00:08:11.426Z,99.90
2018-09-05T00:10:40.035Z,99.90
2018-09-05T00:13:08.678Z,99.90
2018-09-05T00:15:37.197Z,99.90
2018-09-05T00:18:05.641Z,99.90
2018-09-05T00:20:34.249Z,99.90
2018-09-05T00:23:02.708Z,99.90
2018-09-05T00:25:31.214Z,99.90
2018-09-05T00:27:59.590Z,99.90
2018-09-05T00:30:27.986Z,99.90
2018-09-05T00:32:56.389Z,99.90
2018-09-05T00:35:24.838Z,99.90
2018-09-05T00:37:53.266Z,99.90
2018-09-05T00:40:21.800Z,99.90
2018-09-05T00:42:50.337Z,99.90
2018-09-05T00:45:18.781Z,99.90
2018-09-05T00:47:47.308Z,99.90
2018-09-05T00:50:15.688Z,99.90
2018-09-05T00:52:44.104Z,99.90
2018-09-05T00:55:12.496Z,99.90
2018-09-05T00:57:40.926Z,99.90
2018-09-05T01:00:09.468Z,99.90
2018-09-05T01:02:37.987Z,99.90
2018-09-05T01:05:06.508Z,99.90
2018-09-05T01:07:35.043Z,99.90
2018-09-05T01:10:03.445Z,99.90
2018-09-05T01:12:31.848Z,99.90
2018-09-05T01:15:00.432Z,99.90
2018-09-05T01:17:28.977Z,99.90
2018-09-05T01:19:57.537Z,99.90
2018-09-05T01:22:25.889Z,99.90
2018-09-05T01:24:54.354Z,99.90
2018-09-05T01:27:22.839Z,99.90
2018-09-05T01:29:51.245Z,99.90
2018-09-05T01:32:19.798Z,99.90
2018-09-05T01:34:48.259Z,99.90
2018-09-05T01:37:16.705Z,99.90
2018-09-05T01:39:45.179Z,99.90
2018-09-05T01:42:13.627Z,99.90
2018-09-05T01:44:42.173Z,99.90
2018-09-05T01:47:10.575Z,99.90
2018-09-05T01:49:39.030Z,99.90
2018-09-05T01:52:07.462Z,99.90
2018-09-05T01:54:36.007Z,99.90
2018-09-05T01:57:04.482Z,99.90
2018-09-05T01:59:32.835Z,99.90
2018-09-05T02:02:01.328Z,99.90
2018-09-05T02:04:29.815Z,99.90
2018-09-05T02:06:58.334Z,99.90
2018-09-05T02:09:26.706Z,99.90
2018-09-05T02:11:55.097Z,99.90
2018-09-05T02:14:23.655Z,99.90
2018-09-05T02:16:52.154Z,99.90
2018-09-05T02:19:20.745Z,99.90
2018-09-05T02:21:49.208Z,99.90
2018-09-05T02:24:17.682Z,99.90
2018-09-05T02:26:46.109Z,99.90
2018-09-05T02:29:14.588Z,99.90
2018-09-05T02:31:42.991Z,99.90
2018-09-05T02:34:11.390Z,99.90
2018-09-05T02:36:39.781Z,99.90
2018-09-05T02:39:09.745Z,99.90
2018-09-05T02:41:38.205Z,99.90
2018-09-05T02:44:12.211Z,99.90
2018-09-05T02:46:40.598Z,99.90
2018-09-05T02:49:09.492Z,99.90
2018-09-05T02:51:38.016Z,99.90
2018-09-05T02:54:06.465Z,99.90
2018-09-05T02:56:35.007Z,99.90
2018-09-05T02:59:03.571Z,99.90
2018-09-05T03:01:32.182Z,99.90
2018-09-05T03:04:00.633Z,99.90
2018-09-05T03:06:29.160Z,99.90
2018-09-05T03:08:57.639Z,99.90
2018-09-05T03:11:26.153Z,99.90
2018-09-05T03:13:54.600Z,99.90
2018-09-05T03:16:23.032Z,99.90
2018-09-05T03:18:51.467Z,99.90
2018-09-05T03:21:19.954Z,99.90
2018-09-05T03:23:48.417Z,99.90
2018-09-05T03:26:16.855Z,99.90
2018-09-05T03:28:45.397Z,99.90
2018-09-05T03:31:13.853Z,99.90
2018-09-05T03:33:42.355Z,99.90
2018-09-05T03:36:10.785Z,99.90
2018-09-05T03:38:39.296Z,99.90
2018-09-05T03:41:07.800Z,99.90
2018-09-05T03:43:36.285Z,99.90
2018-09-05T03:46:04.839Z,99.90
2018-09-05T03:48:33.295Z,99.90
2018-09-05T03:51:01.713Z,99.90
2018-09-05T03:53:30.200Z,99.90
2018-09-05T03:56:05.133Z,99.90
2018-09-05T03:58:33.725Z,99.90
2018-09-05T04:01:02.184Z,99.90
2018-09-05T04:03:30.673Z,99.90
2018-09-05T04:05:59.045Z,99.90
2018-09-05T04:08:27.509Z,99.90
2018-09-05T04:10:56.023Z,99.90
2018-09-05T04:13:24.482Z,99.90
2018-09-05T04:15:52.968Z,99.90
2018-09-05T04:18:21.448Z,99.90
2018-09-05T04:20:49.863Z,99.90
2018-09-05T04:23:18.334Z,99.90
2018-09-05T04:25:46.761Z,99.90
2018-09-05T04:28:15.219Z,99.90
2018-09-05T04:30:43.689Z,99.90
2018-09-05T04:33:12.116Z,99.90
2018-09-05T04:35:40.523Z,99.90
2018-09-05T04:38:08.931Z,99.90
2018-09-05T04:40:37.303Z,99.90
2018-09-05T04:43:05.702Z,99.90
2018-09-05T04:45:34.119Z,99.90
2018-09-05T04:48:02.557Z,99.90
2018-09-05T04:50:31.145Z,99.90
2018-09-05T04:52:59.621Z,99.90
2018-09-05T04:55:28.139Z,99.90
2018-09-05T04:57:56.687Z,99.90
2018-09-05T05:00:25.178Z,99.90
2018-09-05T05:02:53.666Z,99.90
2018-09-05T05:05:22.132Z,99.90
2018-09-05T05:07:50.481Z,99.90
2018-09-05T05:10:19.015Z,99.90
2018-09-05T05:12:47.362Z,99.90
2018-09-05T05:15:15.818Z,99.90
2018-09-05T05:17:44.244Z,99.90
2018-09-05T05:20:12.737Z,99.90
2018-09-05T05:22:41.187Z,99.90
2018-09-05T05:25:09.672Z,99.90
2018-09-05T05:27:38.102Z,99.90
2018-09-05T05:30:06.763Z,99.90
2018-09-05T05:32:35.191Z,99.90
2018-09-05T05:35:03.623Z,99.90
2018-09-05T05:37:32.079Z,99.90
2018-09-05T05:40:04.874Z,99.90
2018-09-05T05:42:33.338Z,99.90
2018-09-05T05:45:01.969Z,99.90
2018-09-05T05:47:31.142Z,99.90
2018-09-05T05:49:59.602Z,99.90
2018-09-05T05:52:28.033Z,99.90
2018-09-05T05:54:56.604Z,99.90
2018-09-05T05:57:25.027Z,99.90
2018-09-05T05:59:53.530Z,99.90
2018-09-05T06:02:22.033Z,99.90
2018-09-05T06:04:50.563Z,99.90
2018-09-05T06:07:19.078Z,99.90
2018-09-05T06:09:47.463Z,99.90
2018-09-05T06:12:15.941Z,99.90
2018-09-05T06:14:44.310Z,99.90
2018-09-05T06:17:12.921Z,99.90
2018-09-05T06:19:41.405Z,99.90
2018-09-05T06:22:09.878Z,99.90
2018-09-05T06:24:38.283Z,99.90
2018-09-05T06:27:06.736Z,99.90
2018-09-05T06:29:35.223Z,99.90
2018-09-05T06:32:03.718Z,99.90
2018-09-05T06:34:32.247Z,99.90
2018-09-05T06:37:00.735Z,99.90
2018-09-05T06:39:29.115Z,99.90
2018-09-05T06:41:57.446Z,99.90
2018-09-05T06:44:26.023Z,99.90
2018-09-05T06:46:54.499Z,99.90
2018-09-05T06:49:22.918Z,99.90
2018-09-05T06:51:51.308Z,99.90
2018-09-05T06:54:19.719Z,99.90
2018-09-05T06:56:48.127Z,99.90
2018-09-05T06:59:16.587Z,99.90
2018-09-05T07:01:45.135Z,99.90
2018-09-05T07:04:13.560Z,99.90
2018-09-05T07:06:42.108Z,99.90
2018-09-05T07:09:12.159Z,99.90
2018-09-05T07:11:41.056Z,99.90
2018-09-05T07:14:09.594Z,99.90
2018-09-05T07:16:37.979Z,99.90
2018-09-05T07:19:07.730Z,99.90
2018-09-05T07:21:36.653Z,99.90
2018-09-05T07:24:05.055Z,99.90
2018-09-05T07:26:33.518Z,99.90
2018-09-05T07:29:01.886Z,99.90
2018-09-05T07:31:30.319Z,99.90
2018-09-05T07:33:58.791Z,99.90
2018-09-05T07:36:27.383Z,99.90
2018-09-05T07:38:55.746Z,99.90
2018-09-05T07:41:24.143Z,99.90
2018-09-05T07:43:52.592Z,99.90
2018-09-05T07:46:21.020Z,99.90
2018-09-05T07:48:49.454Z,99.90
2018-09-05T07:51:18.167Z,99.90
2018-09-05T07:53:46.543Z,99.90
2018-09-05T07:56:15.105Z,99.90
2018-09-05T07:58:43.599Z,99.90
2018-09-05T08:01:12.179Z,99.90
2018-09-05T08:03:40.676Z,99.90
2018-09-05T08:06:09.185Z,99.90
2018-09-05T08:08:37.663Z,99.90
2018-09-05T08:11:06.248Z,99.90
2018-09-05T08:13:34.655Z,99.90
2018-09-05T08:16:03.176Z,99.90
2018-09-05T08:18:31.586Z,99.90
2018-09-05T08:21:00.032Z,99.90
2018-09-05T08:23:28.549Z,99.90
2018-09-05T08:25:57.310Z,99.90
2018-09-05T08:28:25.812Z,99.90
2018-09-05T08:30:54.268Z,99.90
2018-09-05T08:33:22.839Z,99.90
2018-09-05T08:35:51.629Z,99.90
2018-09-05T08:38:20.143Z,99.90
2018-09-05T08:40:48.702Z,99.90
2018-09-05T08:43:17.144Z,99.90
2018-09-05T08:45:46.067Z,99.90
2018-09-05T08:48:14.487Z,99.90
2018-09-05T08:50:42.941Z,99.90
2018-09-05T08:53:11.479Z,99.90
2018-09-05T08:55:39.885Z,99.90
2018-09-05T08:58:08.456Z,99.90
2018-09-05T09:00:37.017Z,99.90
2018-09-05T09:03:05.538Z,99.90
2018-09-05T09:05:33.918Z,99.90
2018-09-05T09:08:02.382Z,99.90
2018-09-05T09:10:30.807Z,99.90
2018-09-05T09:12:59.251Z,99.90
2018-09-05T09:15:27.617Z,99.90
2018-09-05T09:17:56.044Z,99.90
2018-09-05T09:20:24.379Z,99.90
2018-09-05T09:22:52.854Z,99.90
2018-09-05T09:25:21.334Z,99.90
2018-09-05T09:27:49.800Z,99.90
2018-09-05T09:30:18.306Z,99.90
2018-09-05T09:32:46.783Z,99.90
2018-09-05T09:35:15.256Z,99.90
2018-09-05T09:37:43.690Z,99.90
2018-09-05T09:40:12.149Z,99.90
2018-09-05T09:42:40.850Z,99.90
2018-09-05T09:45:09.295Z,99.90
2018-09-05T09:47:37.662Z,97.90
2018-09-05T09:50:06.201Z,97.00
2018-09-05T09:52:37.730Z,97.10
2018-09-05T09:55:07.479Z,97.20
2018-09-05T09:57:36.324Z,96.10
2018-09-05T10:00:05.276Z,95.60
2018-09-05T10:02:39.006Z,95.60
2018-09-05T10:05:12.829Z,94.80
2018-09-05T10:07:46.687Z,95.50
2018-09-05T10:10:20.703Z,92.50
2018-09-05T10:12:49.854Z,90.50
2018-09-05T10:15:23.720Z,91.90
2018-09-05T10:17:57.758Z,91.00
2018-09-05T10:20:26.313Z,91.20
2018-09-05T10:22:54.688Z,83.60
2018-09-05T10:25:23.130Z,78.90
2018-09-05T10:27:51.536Z,77.80
2018-09-05T10:30:20.031Z,83.90
2018-09-05T10:32:48.500Z,85.60
2018-09-05T10:35:17.111Z,80.50
2018-09-05T10:37:45.593Z,80.30
2018-09-05T10:40:14.172Z,83.20
2018-09-05T10:42:42.665Z,86.40
2018-09-05T10:45:11.163Z,81.60
2018-09-05T10:47:39.677Z,84.80
2018-09-05T10:50:08.200Z,86.40
2018-09-05T10:52:36.715Z,85.70
2018-09-05T10:55:05.164Z,84.40
2018-09-05T10:57:33.591Z,79.00
2018-09-05T11:00:02.028Z,84.80
2018-09-05T11:02:30.396Z,79.80
2018-09-05T11:04:58.836Z,74.30
2018-09-05T11:07:27.198Z,73.20
2018-09-05T11:09:55.649Z,72.50
2018-09-05T11:12:24.077Z,74.60
2018-09-05T11:14:52.624Z,74.60
2018-09-05T11:17:21.147Z,72.20
2018-09-05T11:19:49.643Z,72.20
2018-09-05T11:22:18.247Z,72.00
2018-09-05T11:24:46.651Z,68.50
2018-09-05T11:27:15.336Z,66.40
2018-09-05T11:29:44.738Z,68.10
2018-09-05T11:32:15.286Z,69.60
2018-09-05T11:34:43.723Z,69.80
2018-09-05T11:37:12.107Z,68.20
2018-09-05T11:39:42.071Z,69.00
2018-09-05T11:42:10.501Z,70.50
2018-09-05T11:44:38.970Z,69.40
2018-09-05T11:47:07.371Z,68.00
2018-09-05T11:49:36.048Z,66.50
2018-09-05T11:52:05.650Z,64.00
2018-09-05T11:54:34.080Z,64.90
2018-09-05T11:57:03.661Z,61.30
2018-09-05T11:59:32.134Z,66.30
2018-09-05T12:02:00.547Z,69.20
2018-09-05T12:04:29.042Z,73.10
2018-09-05T12:06:57.507Z,74.90
2018-09-05T12:09:27.029Z,71.30
2018-09-05T12:11:55.459Z,67.50
2018-09-05T12:14:23.916Z,67.30
2018-09-05T12:16:52.683Z,66.10
2018-09-05T12:19:21.156Z,66.50
2018-09-05T12:21:49.699Z,65.80
2018-09-05T12:24:18.191Z,67.30
2018-09-05T12:26:46.821Z,69.50
2018-09-05T12:29:15.390Z,63.90
2018-09-05T12:31:43.994Z,66.50
2018-09-05T12:34:46.898Z,65.00
2018-09-05T12:37:15.168Z,64.00
2018-09-05T12:39:43.470Z,63.20
2018-09-05T12:42:11.728Z,65.70
2018-09-05T12:44:39.968Z,60.60
2018-09-05T12:47:08.154Z,56.50
2018-09-05T12:49:36.424Z,60.00
2018-09-05T12:52:04.622Z,60.80
2018-09-05T12:54:32.903Z,60.30
2018-09-05T12:57:01.311Z,56.40
2018-09-05T12:59:29.600Z,57.90
2018-09-05T13:01:57.933Z,58.90
2018-09-05T13:04:26.212Z,61.80
2018-09-05T13:06:54.482Z,65.10
2018-09-05T13:09:22.772Z,66.30
2018-09-05T13:11:51.016Z,64.90
2018-09-05T13:14:19.325Z,64.70
2018-09-05T13:16:47.602Z,66.50
2018-09-05T13:19:15.883Z,67.10
2018-09-05T13:21:44.143Z,66.00
2018-09-05T13:24:12.483Z,67.90
2018-09-05T13:26:40.834Z,70.30
2018-09-05T13:29:09.303Z,69.10
2018-09-05T13:31:37.516Z,66.70
2018-09-05T13:34:05.742Z,65.30
2018-09-05T13:36:33.935Z,64.90
2018-09-05T13:39:02.212Z,65.60
2018-09-05T13:41:30.480Z,67.30
2018-09-05T13:43:58.746Z,66.80
2018-09-05T13:46:26.920Z,64.40
2018-09-05T13:48:55.144Z,63.90
2018-09-05T13:51:23.392Z,63.90
2018-09-05T13:53:51.614Z,63.40
2018-09-05T13:56:21.971Z,62.60
2018-09-05T13:58:50.991Z,61.50
2018-09-05T14:01:19.292Z,61.70
2018-09-05T14:03:47.530Z,61.90
2018-09-05T14:06:15.801Z,60.10
2018-09-05T14:08:44.067Z,61.70
2018-09-05T14:11:12.756Z,63.40
2018-09-05T14:13:40.967Z,64.50
2018-09-05T14:16:09.187Z,63.50
2018-09-05T14:18:37.526Z,63.50
2018-09-05T14:21:06.796Z,60.30
2018-09-05T14:23:35.448Z,61.20
2018-09-05T14:26:03.723Z,60.90
2018-09-05T14:28:32.962Z,60.50
2018-09-05T14:31:01.198Z,58.80
2018-09-05T14:33:29.455Z,57.30
2018-09-05T14:35:57.686Z,57.10
2018-09-05T14:38:25.957Z,58.80
2018-09-05T14:40:54.541Z,58.20
2018-09-05T14:43:22.779Z,57.10
2018-09-05T14:45:50.961Z,56.50
2018-09-05T14:48:19.212Z,57.00
2018-09-05T14:50:47.427Z,57.40
2018-09-05T14:53:15.643Z,56.90
2018-09-05T14:55:43.873Z,56.50
2018-09-05T14:58:12.152Z,56.20
2018-09-05T15:00:40.384Z,55.30
2018-09-05T15:03:08.700Z,54.30
2018-09-05T15:05:37.003Z,54.80
2018-09-05T15:08:05.252Z,55.00
2018-09-05T15:10:39.318Z,54.30
2018-09-05T15:13:07.530Z,53.70
2018-09-05T15:15:35.793Z,54.10
2018-09-05T15:18:04.109Z,54.60
2018-09-05T15:20:32.414Z,53.70
2018-09-05T15:23:00.709Z,54.80
2018-09-05T15:25:28.916Z,54.40
2018-09-05T15:27:57.306Z,54.60
2018-09-05T15:30:25.637Z,55.50
2018-09-05T15:32:53.842Z,57.10
2018-09-05T15:35:22.275Z,57.90
2018-09-05T15:37:50.506Z,58.70
2018-09-05T15:40:18.752Z,57.40
2018-09-05T15:42:47.107Z,56.90
2018-09-05T15:45:15.393Z,57.10
2018-09-05T15:47:43.615Z,56.90
2018-09-05T15:50:11.962Z,57.20
2018-09-05T15:52:40.140Z,58.00
2018-09-05T15:55:08.346Z,58.00
2018-09-05T15:57:36.623Z,58.10
2018-09-05T16:00:04.855Z,58.90
2018-09-05T16:02:33.067Z,59.30
2018-09-05T16:05:01.354Z,59.10
2018-09-05T16:07:29.938Z,59.70
2018-09-05T16:09:58.118Z,58.70
2018-09-05T16:12:26.378Z,59.60
2018-09-05T16:14:54.559Z,59.80
2018-09-05T16:17:22.838Z,59.70
2018-09-05T16:19:51.074Z,59.40
2018-09-05T16:22:19.291Z,61.20
2018-09-05T16:24:47.573Z,61.80
2018-09-05T16:27:15.835Z,61.10
2018-09-05T16:29:44.277Z,60.90
2018-09-05T16:32:12.577Z,60.70
2018-09-05T16:34:40.836Z,62.50
2018-09-05T16:37:09.133Z,63.00
2018-09-05T16:39:37.399Z,62.30
2018-09-05T16:42:05.697Z,62.40
2018-09-05T16:44:33.872Z,61.60
2018-09-05T16:47:02.131Z,62.00
2018-09-05T16:49:30.294Z,61.80
2018-09-05T16:51:58.550Z,62.30
2018-09-05T16:54:26.755Z,61.50
2018-09-05T16:56:54.949Z,61.90
2018-09-05T16:59:23.166Z,62.60
2018-09-05T17:01:51.412Z,62.80
2018-09-05T17:04:19.584Z,62.50
2018-09-05T17:06:47.929Z,62.80
2018-09-05T17:09:16.128Z,63.30
2018-09-05T17:11:44.371Z,62.50
2018-09-05T17:14:12.629Z,63.20
2018-09-05T17:16:40.862Z,63.20
2018-09-05T17:19:09.081Z,64.10
2018-09-05T17:21:37.354Z,64.20
2018-09-05T17:24:05.527Z,64.30
2018-09-05T17:26:33.843Z,63.60
2018-09-05T17:29:02.054Z,63.30
2018-09-05T17:31:30.234Z,63.10
2018-09-05T17:33:58.450Z,63.60
2018-09-05T17:36:26.651Z,64.10
2018-09-05T17:38:54.906Z,65.80
2018-09-05T17:41:23.104Z,66.70
2018-09-05T17:43:51.369Z,68.50
2018-09-05T17:46:19.648Z,71.00
2018-09-05T17:48:47.928Z,73.30
2018-09-05T17:51:16.172Z,72.70
2018-09-05T17:53:44.449Z,74.40
2018-09-05T17:56:12.646Z,79.60
2018-09-05T17:58:40.926Z,80.50
2018-09-05T18:01:12.656Z,79.10
2018-09-05T18:03:40.855Z,80.80
2018-09-05T18:06:09.116Z,82.20
2018-09-05T18:08:37.342Z,85.20
2018-09-05T18:11:05.587Z,87.30
2018-09-05T18:13:33.806Z,88.20
2018-09-05T18:16:02.081Z,90.70
2018-09-05T18:18:30.331Z,88.40
2018-09-05T18:20:58.551Z,88.30
2018-09-05T18:23:26.801Z,89.40
2018-09-05T18:25:54.986Z,88.50
2018-09-05T18:28:23.219Z,88.90
2018-09-05T18:30:51.478Z,90.60
2018-09-05T18:33:19.810Z,91.30
2018-09-05T18:35:48.039Z,91.80
2018-09-05T18:38:16.361Z,93.40
2018-09-05T18:40:44.494Z,93.20
2018-09-05T18:43:12.814Z,94.80
2018-09-05T18:45:41.099Z,95.50
2018-09-05T18:48:09.490Z,96.90
2018-09-05T18:50:38.061Z,98.40
2018-09-05T18:53:10.327Z,99.90
2018-09-05T18:55:40.029Z,99.90
2018-09-05T18:58:08.686Z,99.90
2018-09-05T19:00:37.572Z,99.90
2018-09-05T19:03:12.601Z,99.90
2018-09-05T19:05:43.530Z,99.90
2018-09-05T19:08:12.037Z,99.90
2018-09-05T19:10:40.696Z,99.90
2018-09-05T19:13:11.201Z,99.90
2018-09-05T19:15:39.683Z,99.90
2018-09-05T19:18:08.911Z,99.90
2018-09-05T19:20:37.340Z,99.90
2018-09-05T19:23:05.888Z,99.90
2018-09-05T19:25:34.346Z,99.90
2018-09-05T19:28:02.921Z,99.90
2018-09-05T19:30:32.339Z,99.90
2018-09-05T19:33:00.769Z,99.90
2018-09-05T19:35:29.302Z,99.90
2018-09-05T19:37:57.716Z,99.90
2018-09-05T19:40:26.147Z,99.90
2018-09-05T19:42:54.475Z,99.90
2018-09-05T19:45:22.919Z,99.90
2018-09-05T19:47:51.506Z,99.90
2018-09-05T19:50:19.896Z,99.90
2018-09-05T19:52:48.320Z,99.90
2018-09-05T19:55:16.791Z,99.90
2018-09-05T19:57:45.164Z,99.90
2018-09-05T20:00:15.131Z,99.90
2018-09-05T20:02:43.574Z,99.90
2018-09-05T20:05:12.096Z,99.90
2018-09-05T20:07:40.544Z,99.90
2018-09-05T20:10:09.040Z,99.90
2018-09-05T20:12:37.451Z,99.90
2018-09-05T20:15:05.931Z,99.90
2018-09-05T20:17:34.393Z,99.90
2018-09-05T20:20:02.804Z,99.90
2018-09-05T20:22:31.203Z,99.90
2018-09-05T20:24:59.723Z,99.90
2018-09-05T20:27:28.283Z,99.90
2018-09-05T20:29:57.192Z,99.90
2018-09-05T20:32:25.801Z,99.90
2018-09-05T20:34:54.234Z,99.90
2018-09-05T20:37:22.643Z,99.90
2018-09-05T20:39:51.091Z,99.90
2018-09-05T20:42:19.572Z,99.90
2018-09-05T20:44:48.045Z,99.90
2018-09-05T20:47:16.544Z,99.90
2018-09-05T20:49:44.984Z,99.90
2018-09-05T20:52:13.537Z,99.90
2018-09-05T20:54:42.019Z,99.90
2018-09-05T20:57:10.484Z,99.90
2018-09-05T20:59:38.956Z,99.90
2018-09-05T21:02:07.361Z,99.90
2018-09-05T21:04:35.803Z,99.90
2018-09-05T21:07:04.236Z,99.90
2018-09-05T21:09:32.760Z,99.90
2018-09-05T21:12:01.351Z,99.90
2018-09-05T21:14:29.812Z,99.90
2018-09-05T21:16:58.298Z,99.90
2018-09-05T21:19:26.999Z,99.90
2018-09-05T21:21:55.507Z,99.90
2018-09-05T21:24:24.057Z,99.90
2018-09-05T21:26:52.435Z,99.90
2018-09-05T21:29:20.880Z,99.90
2018-09-05T21:31:49.420Z,99.90
2018-09-05T21:34:17.823Z,99.90
2018-09-05T21:36:46.265Z,99.90
2018-09-05T21:39:14.720Z,99.90
2018-09-05T21:41:43.214Z,99.90
2018-09-05T21:44:11.727Z,99.90
2018-09-05T21:46:40.232Z,99.90
2018-09-05T21:49:08.674Z,99.90
2018-09-05T21:51:37.085Z,99.90
2018-09-05T21:54:05.603Z,99.90
2018-09-05T21:56:34.067Z,99.90
2018-09-05T21:59:02.542Z,99.90
2018-09-05T22:01:31.046Z,99.90
2018-09-05T22:03:59.478Z,99.90
2018-09-05T22:06:27.958Z,99.90
2018-09-05T22:08:56.440Z,99.90
2018-09-05T22:11:26.821Z,99.90
2018-09-05T22:13:56.016Z,99.90
2018-09-05T22:16:24.507Z,99.90
2018-09-05T22:18:53.049Z,99.90
2018-09-05T22:21:21.562Z,99.90
2018-09-05T22:23:50.047Z,99.90
2018-09-05T22:26:18.545Z,99.90
2018-09-05T22:28:47.088Z,99.90
2018-09-05T22:31:15.605Z,99.90
2018-09-05T22:33:44.155Z,99.90
2018-09-05T22:36:12.571Z,99.90
2018-09-05T22:38:41.014Z,99.90
2018-09-05T22:41:09.418Z,99.90
2018-09-05T22:43:49.059Z,99.90
2018-09-05T22:46:28.771Z,99.90
2018-09-05T22:49:08.376Z,99.90
2018-09-05T22:52:19.452Z,99.90
2018-09-05T22:57:11.754Z,99.90
2018-09-05T23:01:02.074Z,99.90
2018-09-05T23:03:41.926Z,99.90
2018-09-05T23:07:20.351Z,99.90
2018-09-05T23:09:59.966Z,99.90
2018-09-05T23:12:39.717Z,99.90
2018-09-05T23:15:19.574Z,99.90
2018-09-05T23:20:02.418Z,99.90
2018-09-05T23:22:42.112Z,99.90
2018-09-05T23:25:10.748Z,99.90
2018-09-05T23:27:39.260Z,99.90
2018-09-05T23:30:08.416Z,99.90
2018-09-05T23:32:36.859Z,99.90
2018-09-05T23:35:05.379Z,99.90
2018-09-05T23:37:33.998Z,99.90
2018-09-05T23:40:02.535Z,99.90
2018-09-05T23:42:30.977Z,99.90
2018-09-05T23:44:59.499Z,99.90
2018-09-05T23:47:28.089Z,99.90
2018-09-05T23:49:56.515Z,99.90
2018-09-05T23:52:24.952Z,99.90
2018-09-05T23:54:53.534Z,99.90
2018-09-05T23:57:22.023Z,99.90
2018-09-05T23:59:50.505Z,99.90
